• Join FlightAware (Why Join?)
  • Login
  • US Flag 
01:22PM EDT


 

Airport Tracker/Info


-or-


 

Live Flight TrackerFlight Track Log ✈ SWA1969 ✈ 08-Apr-2013 ✈ KMDW - KMHT

Flight Track Log - Related Links

Times and Time Zones

All times are in EDT time to prevent confusion due to time zone crossing. See the SWA1969 flight status page for this flight to view local times or setup timezone preferences in your user account.

Time Position Orientation Groundspeed Altitude Reporting Facility
EDT Latitude Longitude Course Direction KTS MPH feet Rate Location/Type
11:25AM 41.7783 -87.7792 79° East 131 151 2,300  Level Chicago Center
11:26AM 41.8267 -87.7631 14° North 275 316 3,000 780 Climbing Chicago Center
11:27AM 41.8156 -87.6503 97° East 259 298 4,000 1,980 Climbing Chicago Center
11:28AM 41.8064 -87.5383 96° East 280 322 7,100 3,600 Climbing Chicago Center
11:29AM 41.7947 -87.4189 97° East 321 369 11,400 3,660 Climbing Chicago Center
11:30AM 41.9170 -86.8126 79° East  Level Estimated
11:30AM 41.7853 -87.2933 96° East 332 382 14,700  Level Chicago Center
11:31AM 41.7858 -87.1508 90° East 371 427 18,200 3,120 Climbing Chicago Center
11:32AM 41.7981 -87.0050 84° East 389 448 21,200 2,580 Climbing Chicago Center
11:33AM 41.8117 -86.8494 83° East 411 473 23,600 2,520 Climbing Chicago Center
11:34AM 41.8261 -86.6758 84° East 442 509 26,400 2,460 Climbing Chicago Center
11:35AM 41.8386 -86.5064 84° East 454 522 28,700 2,040 Climbing Chicago Center
11:36AM 41.8528 -86.3322 84° East 466 536 30,700 2,040 Climbing Chicago Center
11:37AM 41.8703 -86.1147 84° East 485 558 32,900 1,920 Climbing Chicago Center
11:38AM 41.8844 -85.9317 84° East 491 565 34,700 1,440 Climbing Chicago Center
11:39AM 41.9000 -85.7456 84° East 496 571 35,900 1,320 Climbing Chicago Center
11:40AM 41.9133 -85.5528 85° East 508 585 37,500 1,560 Climbing Chicago Center
11:41AM 41.9272 -85.3642 84° East 505 581 39,200 960 Climbing Chicago Center
11:42AM 41.9408 -85.1750 84° East 505 581 39,500 840 Climbing Chicago Center
11:43AM 41.9525 -84.9828 85° East 512 589 41,000 720 Climbing Chicago Center
11:44AM 41.9639 -84.7989 85° East 500 575 41,000  Level Chicago Center
11:45AM 41.9811 -84.6094 83° East 490 564 41,000  Level Chicago Center
11:46AM 42.0047 -84.4286 80° East 493 567 41,000  Level Chicago Center
11:47AM 42.0253 -84.2464 81° East 494 568 41,000  Level Chicago Center
11:48AM 42.0450 -84.0506 82° East 489 563 41,000 -360 Level Cleveland Center
11:49AM 42.0650 -83.8725 81° East 484 557 40,300 -900 Descending Cleveland Center
11:50AM 42.0847 -83.6861 82° East 484 557 39,300 -660 Descending Cleveland Center
11:51AM 42.1089 -83.4828 81° East 494 568 39,000 -180 Descending Cleveland Center
11:52AM 42.1278 -83.3017 82° East 494 568 39,000  Level Cleveland Center
11:53AM 42.1467 -83.1122 82° East 499 574 39,000  Level Cleveland Center
11:54AM 42.1653 -82.9308 82° East 499 574 39,000  Level Cleveland Center
11:55AM 42.1856 -82.7494 81° East 499 574 39,000  Level Cleveland Center
11:56AM 42.2056 -82.5650 82° East 499 574 39,000  Level Cleveland Center
11:57AM 42.2231 -82.3806 83° East 499 574 39,000  Level Cleveland Center
11:58AM 42.2425 -82.1958 82° East 499 574 39,000  Level Cleveland Center
11:59AM 42.2594 -82.0281 82° East 499 574 39,000  Level Cleveland Center
12:00PM 42.2739 -81.8486 84° East 492 566 39,000  Level Cleveland Center
12:01PM 42.2928 -81.6469 83° East 492 566 39,000  Level Cleveland Center
12:02PM 42.3131 -81.4619 82° East 498 573 39,000  Level Cleveland Center
12:03PM 42.3289 -81.2825 83° East 498 573 39,000  Level Cleveland Center
12:04PM 42.3444 -81.1000 83° East 488 562 39,000  Level Cleveland Center
12:05PM 42.3597 -80.9119 84° East 488 562 39,000  Level Cleveland Center
12:06PM 42.3767 -80.7350 83° East 482 555 39,000  Level Cleveland Center
12:07PM 42.3894 -80.5550 84° East 482 555 39,000  Level Cleveland Center
12:08PM 42.4039 -80.3947 83° East 477 549 39,000  Level Cleveland Center
12:09PM 42.4181 -80.2147 84° East 482 555 39,000  Level Cleveland Center
12:10PM 42.4339 -80.0375 83° East 476 548 39,000  Level Cleveland Center
12:11PM 42.4456 -79.8600 85° East 476 548 39,000  Level Cleveland Center
12:12PM 42.4589 -79.6825 84° East 481 554 39,000  Level Cleveland Center
12:13PM 42.4739 -79.5022 84° East 481 554 39,000  Level Cleveland Center
12:14PM 42.4867 -79.3247 84° East 481 554 39,000  Level Cleveland Center
12:15PM 42.4992 -79.1469 84° East 481 554 39,000  Level Cleveland Center
12:16PM 42.5114 -78.9664 85° East 481 554 39,000  Level Cleveland Center
12:17PM 42.5233 -78.7858 85° East 481 554 39,000  Level Cleveland Center
12:18PM 42.5350 -78.6050 85° East 481 554 39,000  Level Cleveland Center
12:19PM 42.5483 -78.4214 84° East 481 554 39,000  Level Cleveland Center
12:20PM 42.5594 -78.2406 85° East 481 554 39,000  Level Cleveland Center
12:21PM 42.5703 -78.0569 85° East 481 554 39,000  Level Cleveland Center
12:24PM 42.5958 -77.6478 85° East 497 572 39,000  Level Boston Center
12:25PM 42.6050 -77.4425 86° East 490 564 39,000  Level Boston Center
12:26PM 42.6150 -77.2569 86° East 490 564 39,000  Level Boston Center
12:26PM 42.6250 -77.0714 86° East 490 564 39,000  Level Boston Center
12:27PM 42.6344 -76.8858 86° East 490 564 39,000  Level Boston Center
12:28PM 42.6439 -76.6944 86° East 495 570 39,000  Level Boston Center
12:29PM 42.6525 -76.5114 86° East 495 570 39,000  Level Boston Center
12:31PM 42.6611 -76.3256 86° East 490 564 39,000  Level Boston Center
12:32PM 42.6686 -76.1650 86° East 490 564 39,000  Level Boston Center
12:33PM 42.6769 -75.9733 87° East 490 564 39,000 -360 Level Boston Center
12:33PM 42.6847 -75.7844 87° East 495 570 38,300 -840 Descending Boston Center
12:34PM 42.6919 -75.6042 87° East 495 570 37,400 -900 Descending Boston Center
12:35PM 42.6989 -75.4208 87° East 489 563 36,500 -960 Descending Boston Center
12:36PM 42.6847 -75.2419 96° East 484 557 35,500 -960 Descending Boston Center
12:37PM 42.6725 -75.0581 95° East 479 551 34,600 -1,080 Descending Boston Center
12:38PM 42.6875 -74.8494 84° East 485 558 33,400 -1,140 Descending Boston Center
12:40PM 42.6983 -74.6294 86° East 485 558 32,200 -1,080 Descending Boston Center
12:41PM 42.6847 -74.4511 96° East 485 558 31,100 -1,080 Descending Boston Center
12:42PM 42.6606 -74.2753 101° East 480 552 30,100 -1,260 Descending Boston Center
12:43PM 42.6383 -74.0997 100° East 475 547 28,700 -1,560 Descending Boston Center
12:44PM 42.6178 -73.9325 99° East 470 541 27,100 -1,620 Descending Boston Center
12:45PM 42.6008 -73.7800 99° East 438 504 25,500 -1,500 Descending Boston Center
12:46PM 42.5961 -73.6386 93° East 419 482 24,100 -1,200 Descending Boston Center
12:47PM 42.6206 -73.4897 77° East 403 464 23,100 -1,080 Descending Boston Center
12:48PM 42.6428 -73.3406 79° East 403 464 22,000 -1,080 Descending Boston Center
12:49PM 42.6667 -73.1967 77° East 403 464 21,000 -1,080 Descending Boston Center
12:50PM 42.6883 -73.0503 79° East 398 458 19,900 -1,020 Descending Boston Center
12:51PM 42.7078 -72.9119 79° East 384 442 19,000 -840 Descending Boston Center
12:52PM 42.7272 -72.7708 79° East 373 429 18,200 -900 Descending Boston Center
12:53PM 42.7483 -72.6211 79° East 368 423 17,200 -1,020 Descending Boston Center
12:54PM 42.7672 -72.4881 79° East 368 423 16,200 -1,440 Descending Boston Center
12:55PM 42.7881 -72.3553 78° East 368 423 14,400 -1,800 Descending Boston Center
12:56PM 42.7983 -72.2278 84° East 347 399 12,600 -1,740 Descending Boston Center
12:57PM 42.7981 -72.1119 90° East 342 394 11,000 -1,440 Descending Boston Center
12:58PM 42.7872 -71.9789 96° East 330 380 9,800 -1,320 Descending Boston Center
12:59PM 42.7803 -71.8772 95° East 307 353 8,400 -1,680 Descending Boston Center
01:00PM 42.7694 -71.7556 97° East 297 342 6,500 -1,740 Descending Boston Center
01:01PM 42.7603 -71.6625 98° East 285 328 5,000 -1,620 Descending Boston Center
01:02PM 42.7678 -71.5519 85° East 262 302 3,300 -1,020 Descending Boston Center
01:03PM 42.7944 -71.4781 64° Northeast 241 277 3,000 -420 Descending Boston Center
01:04PM 42.8147 -71.4097 68° East 219 252 2,500 -540 Descending Boston Center
01:05PM 42.8539 -71.3864 24° Northeast 140 161 2,000 -780 Descending Boston Center
01:06PM 42.8897 -71.4086 336° Northwest 124 143 1,000 -900 Descending Boston Center
01:07PM 42.9169 -71.4253 336° Northwest 124 143 300 3,960 Descending Boston Center
01:08PM 42.9525 -71.4472 336° Northwest 124 143 9,000 4,380 Climbing Boston Center
01:09PM 42.9839 -71.4694 333° Northwest 124 143 9,000  Level Boston Center
01:10PM 43.0153 -71.4889 336° Northwest 124 143 9,000  Level Boston Center
01:12PM 42.9328 -71.4358 160° South  Level Estimated
01:19PM 42.9328 -71.4358 160° South  Level Estimated
01:20PM 42.9328 -71.4358 160° South  Level Estimated
01:21PM 42.9328 -71.4358 160° South  Level Estimated
01:22PM 42.9328 -71.4358 160° South  Level Estimated
01:23PM 42.9328 -71.4358 160° South  Level Estimated